Terminal Aerodrome Forecast
Issued by NWS

Home | Current Version | Previous Version | Text Only | Print | Product List | Glossary On
Versions: 1 2 3 4 5 6 7 8 9 10 11 12 13 14 15 16
000
FTUS45 KABQ 032333
TAFROW
TAF
KROW 032333Z 0400/0424 01006KT P6SM SCT020 OVC030
      TEMPO 0400/0404 6SM -SHRA OVC018
     FM040500 35007KT P6SM VCSH OVC012
     FM041100 35008KT 3SM BR OVC010
     FM041900 01008KT P6SM FEW020 BKN035=

USA.gov is the U.S. government's official web portal to all federal, state and local government web resources and services.